地図

経路データ

SID SEASON NUMBER BASIN SUBBASIN NAME ISO_TIME NATURE LAT LON WMO_WIND WMO_PRES WMO_AGENCY TRACK_TYPE DIST2LAND LANDFALL IFLAG USA_AGENCY USA_ATCF_ID USA_LAT USA_LON USA_RECORD USA_STATUS USA_WIND USA_PRES USA_SSHS USA_R34_NE USA_R34_SE USA_R34_SW USA_R34_NW USA_R50_NE USA_R50_SE USA_R50_SW USA_R50_NW USA_R64_NE USA_R64_SE USA_R64_SW USA_R64_NW USA_POCI USA_ROCI USA_RMW USA_EYE TOKYO_LAT TOKYO_LON TOKYO_GRADE TOKYO_WIND TOKYO_PRES TOKYO_R50_DIR TOKYO_R50_LONG TOKYO_R50_SHORT TOKYO_R30_DIR TOKYO_R30_LONG TOKYO_R30_SHORT TOKYO_LAND CMA_LAT CMA_LON CMA_CAT CMA_WIND CMA_PRES HKO_LAT HKO_LON HKO_CAT HKO_WIND HKO_PRES NEWDELHI_LAT NEWDELHI_LON NEWDELHI_GRADE NEWDELHI_WIND NEWDELHI_PRES NEWDELHI_CI NEWDELHI_DP NEWDELHI_POCI REUNION_LAT REUNION_LON REUNION_TYPE REUNION_WIND REUNION_PRES REUNION_TNUM REUNION_CI REUNION_RMW REUNION_R34_NE REUNION_R34_SE REUNION_R34_SW REUNION_R34_NW REUNION_R50_NE REUNION_R50_SE REUNION_R50_SW REUNION_R50_NW REUNION_R64_NE REUNION_R64_SE REUNION_R64_SW REUNION_R64_NW BOM_LAT BOM_LON BOM_TYPE BOM_WIND BOM_PRES BOM_TNUM BOM_CI BOM_RMW BOM_R34_NE BOM_R34_SE BOM_R34_SW BOM_R34_NW BOM_R50_NE BOM_R50_SE BOM_R50_SW BOM_R50_NW BOM_R64_NE BOM_R64_SE BOM_R64_SW BOM_R64_NW BOM_ROCI BOM_POCI BOM_EYE BOM_POS_METHOD BOM_PRES_METHOD NADI_LAT NADI_LON NADI_CAT NADI_WIND NADI_PRES WELLINGTON_LAT WELLINGTON_LON WELLINGTON_WIND WELLINGTON_PRES DS824_LAT DS824_LON DS824_STAGE DS824_WIND DS824_PRES TD9636_LAT TD9636_LON TD9636_STAGE TD9636_WIND TD9636_PRES TD9635_LAT TD9635_LON TD9635_WIND TD9635_PRES TD9635_ROCI NEUMANN_LAT NEUMANN_LON NEUMANN_CLASS NEUMANN_WIND NEUMANN_PRES MLC_LAT MLC_LON MLC_CLASS MLC_WIND MLC_PRES USA_GUST BOM_GUST BOM_GUST_PER REUNION_GUST REUNION_GUST_PER USA_SEAHGT USA_SEARAD_NE USA_SEARAD_SE USA_SEARAD_SW USA_SEARAD_NW STORM_SPEED STORM_DIR
1911259N13149 1911 59 WP MM NOT_NAMED 1911-09-16 09:00:00 NR 13.2000 148.900 main 1722 1722 __________O___ -1 13.2000 148.900 7 8 334
1911259N13149 1911 59 WP MM NOT_NAMED 1911-09-16 12:00:00 NR 13.5698 148.708 main 1764 1764 __________P___ -1 13.5698 148.708 7 9 331
1911259N13149 1911 59 WP MM NOT_NAMED 1911-09-16 15:00:00 NR 13.9417 148.472 main 1796 1796 __________P___ -1 13.9417 148.472 7 9 324
1911259N13149 1911 59 WP MM NOT_NAMED 1911-09-16 18:00:00 NR 14.3178 148.151 main 1839 1838 __________P___ -1 14.3178 148.151 7 11 315
1911259N13149 1911 59 WP MM NOT_NAMED 1911-09-16 21:00:00 NR 14.7000 147.700 main 1882 1882 __________O___ -1 14.7000 147.700 7 13 307
1911259N13149 1911 59 WP MM NOT_NAMED 1911-09-17 00:00:00 NR 15.0893 147.091 main 1926 1926 __________P___ -1 15.0893 147.091 7 15 301
1911259N13149 1911 59 WP MM NOT_NAMED 1911-09-17 03:00:00 NR 15.4857 146.357 main 1971 1971 __________P___ -1 15.4857 146.357 7 17 298
1911259N13149 1911 59 WP MM NOT_NAMED 1911-09-17 06:00:00 NR 15.8891 145.544 main 2020 2020 __________P___ -1 15.8891 145.544 7 18 297
1911259N13149 1911 59 WP MM NOT_NAMED 1911-09-17 09:00:00 NR 16.3000 144.700 main 2071 2038 __________O___ -1 16.3000 144.700 7 18 300
1911259N13149 1911 59 WP MM NOT_NAMED 1911-09-17 12:00:00 NR 16.7648 143.934 main 2023 1954 __________P___ -1 16.7648 143.934 7 18 302
1911259N13149 1911 59 WP MM NOT_NAMED 1911-09-17 15:00:00 NR 17.2298 143.141 main 1951 1883 __________P___ -1 17.2298 143.141 7 18 300
1911259N13149 1911 59 WP MM NOT_NAMED 1911-09-17 18:00:00 NR 17.6550 142.302 main 1869 1809 __________P___ -1 17.6550 142.302 7 18 295
1911259N13149 1911 59 WP MM NOT_NAMED 1911-09-17 21:00:00 NR 18.0000 141.400 main 1803 1735 __________O___ -1 18.0000 141.400 7 19 287
1911259N13149 1911 59 WP MM NOT_NAMED 1911-09-18 00:00:00 NR 18.1939 140.436 main 1730 1649 __________P___ -1 18.1939 140.436 7 19 279
1911259N13149 1911 59 WP MM NOT_NAMED 1911-09-18 03:00:00 NR 18.3082 139.408 main 1639 1547 __________P___ -1 18.3082 139.408 7 20 276
1911259N13149 1911 59 WP MM NOT_NAMED 1911-09-18 06:00:00 NR 18.3933 138.326 main 1537 1448 __________P___ -1 18.3933 138.326 7 21 275
1911259N13149 1911 59 WP MM NOT_NAMED 1911-09-18 09:00:00 NR 18.5000 137.200 main 1438 1333 __________O___ -1 18.5000 137.200 7 23 276
1911259N13149 1911 59 WP MM NOT_NAMED 1911-09-18 12:00:00 NR 18.6263 135.933 main 1324 1228 __________P___ -1 18.6263 135.933 7 24 277
1911259N13149 1911 59 WP MM NOT_NAMED 1911-09-18 15:00:00 NR 18.7900 134.641 main 1218 1125 __________P___ -1 18.7900 134.641 7 24 280
1911259N13149 1911 59 WP MM NOT_NAMED 1911-09-18 18:00:00 NR 19.0330 133.429 main 1116 1051 __________P___ -1 19.0330 133.429 7 22 286
1911259N13149 1911 59 WP MM NOT_NAMED 1911-09-18 21:00:00 NR 19.4000 132.400 main 1051 1001 __________O___ -1 19.4000 132.400 7 19 299
1911259N13149 1911 59 WP MM NOT_NAMED 1911-09-19 00:00:00 NR 19.9452 131.661 main 1001 954 __________P___ -1 19.9452 131.661 7 17 315
1911259N13149 1911 59 WP MM NOT_NAMED 1911-09-19 03:00:00 NR 20.6172 131.110 main 954 932 __________P___ -1 20.6172 131.110 7 17 327
1911259N13149 1911 59 WP MM NOT_NAMED 1911-09-19 06:00:00 NR 21.3559 130.679 main 939 898 __________P___ -1 21.3559 130.679 7 17 333
1911259N13149 1911 59 WP MM NOT_NAMED 1911-09-19 09:00:00 NR 22.1000 130.300 main 898 839 __________O___ -1 22.1000 130.300 7 16 331
1911259N13149 1911 59 WP MM NOT_NAMED 1911-09-19 12:00:00 NR 22.7445 129.842 main 829 773 __________P___ -1 22.7445 129.842 7 15 328
1911259N13149 1911 59 WP MM NOT_NAMED 1911-09-19 15:00:00 NR 23.3844 129.423 main 770 726 __________P___ -1 23.3844 129.423 7 15 330
1911259N13149 1911 59 WP MM NOT_NAMED 1911-09-19 18:00:00 NR 24.0322 129.043 main 716 676 __________P___ -1 24.0322 129.043 7 15 333
1911259N13149 1911 59 WP MM NOT_NAMED 1911-09-19 21:00:00 NR 24.7000 128.700 main 676 634 __________O___ -1 24.7000 128.700 7 16 335
1911259N13149 1911 59 WP MM NOT_NAMED 1911-09-20 00:00:00 NR 25.4398 128.318 main 634 596 __________P___ -1 25.4398 128.318 7 16 337
1911259N13149 1911 59 WP MM NOT_NAMED 1911-09-20 03:00:00 NR 26.1948 127.980 main 596 537 __________P___ -1 26.1948 127.980 7 16 340
1911259N13149 1911 59 WP MM NOT_NAMED 1911-09-20 06:00:00 NR 26.9273 127.728 main 537 474 __________P___ -1 26.9273 127.728 7 15 346
1911259N13149 1911 59 WP MM NOT_NAMED 1911-09-20 09:00:00 NR 27.6000 127.600 main 474 427 __________O___ -1 27.6000 127.600 4 13 354
1911259N13149 1911 59 WP MM NOT_NAMED 1911-09-20 12:00:00 NR 28.1793 127.564 main 418 368 __________P___ -1 28.1793 127.564 4 11 3
1911259N13149 1911 59 WP MM NOT_NAMED 1911-09-20 15:00:00 NR 28.6949 127.665 main 368 321 __________P___ -1 28.6949 127.665 4 10 17
1911259N13149 1911 59 WP MM NOT_NAMED 1911-09-20 18:00:00 NR 29.1632 127.909 main 313 254 __________P___ -1 29.1632 127.909 4 11 31
1911259N13149 1911 59 WP MM NOT_NAMED 1911-09-20 21:00:00 NR 29.6000 128.300 main 254 189 __________O___ -1 29.6000 128.300 4 12 43
1911259N13149 1911 59 WP MM NOT_NAMED 1911-09-21 00:00:00 NR 30.0257 128.819 main 189 117 __________P___ -1 30.0257 128.819 4 13 51
1911259N13149 1911 59 WP MM NOT_NAMED 1911-09-21 03:00:00 NR 30.4238 129.478 main 111 44 __________P___ -1 30.4238 129.478 4 14 57
1911259N13149 1911 59 WP MM NOT_NAMED 1911-09-21 06:00:00 NR 30.8098 130.223 main 44 0 __________P___ -1 30.8098 130.223 4 15 59
1911259N13149 1911 59 WP MM NOT_NAMED 1911-09-21 09:00:00 NR 31.2000 131.000 main 9 0 __________O___ -1 31.2000 131.000 7 14 56
1911259N13149 1911 59 WP MM NOT_NAMED 1911-09-21 12:00:00 NR 31.5809 131.538 main 9 9 __________P___ -1 31.5809 131.538 7 12 51
1911259N13149 1911 59 WP MM NOT_NAMED 1911-09-21 15:00:00 NR 31.9763 132.124 main 56 38 __________P___ -1 31.9763 132.124 7 14 54
1911259N13149 1911 59 WP MM NOT_NAMED 1911-09-21 18:00:00 NR 32.4095 132.896 main 34 21 __________P___ -1 32.4095 132.896 7 18 60
1911259N13149 1911 59 WP MM NOT_NAMED 1911-09-21 21:00:00 NR 32.9000 134.000 main 38 11 __________O___ -1 32.9000 134.000 7 26 65
1911259N13149 1911 59 WP MM NOT_NAMED 1911-09-22 00:00:00 NR 33.4963 135.663 main 9 0 __________P___ -1 33.4963 135.663 7 33 68
1911259N13149 1911 59 WP MM NOT_NAMED 1911-09-22 03:00:00 NR 34.1174 137.673 main 66 14 __________P___ -1 34.1174 137.673 7 37 71
1911259N13149 1911 59 WP MM NOT_NAMED 1911-09-22 06:00:00 NR 34.7018 139.849 main 24 21 __________P___ -1 34.7018 139.849 7 37 73
1911259N13149 1911 59 WP MM NOT_NAMED 1911-09-22 09:00:00 NR 35.2000 142.000 main 113 113 __________O___ -1 35.2000 142.000 7 35 75
1911259N13149 1911 59 WP MM NOT_NAMED 1911-09-22 12:00:00 NR 35.5862 143.969 main 279 279 __________P___ -1 35.5862 143.969 7 31 77
1911259N13149 1911 59 WP MM NOT_NAMED 1911-09-22 15:00:00 NR 35.8811 145.771 main 441 441 __________P___ -1 35.8811 145.771 7 29 79
1911259N13149 1911 59 WP MM NOT_NAMED 1911-09-22 18:00:00 NR 36.1114 147.461 main 583 583 __________P___ -1 36.1114 147.461 7 27 81
1911259N13149 1911 59 WP MM NOT_NAMED 1911-09-22 21:00:00 NR 36.3000 149.100 main 706 __________O___ -1 36.3000 149.100 7 27 82

デジタル台風データ・検索

IBTrACS Databaseについて

本データベースは、米国NOAAが公開する1842年以降の世界の熱帯低気圧のベストトラックデータアーカイブInternational Best Track Archive for Climate Stewardship (IBTrACS)を、ウェブで閲覧しやすい形式に変換したものです。

最終更新日:2021-12-03